sensor_id;sensor_type;location;lat;lon;timestamp;P1;durP1;ratioP1;P2;durP2;ratioP2
30247;SDS011;17063;50.892;4.702;2023-02-26T00:01:32;9.00;;;3.17;;
30247;SDS011;17063;50.892;4.702;2023-02-26T00:04:00;11.95;;;3.10;;
30247;SDS011;17063;50.892;4.702;2023-02-26T00:06:28;10.95;;;3.15;;
30247;SDS011;17063;50.892;4.702;2023-02-26T00:08:58;10.25;;;3.13;;
30247;SDS011;17063;50.892;4.702;2023-02-26T00:11:35;7.88;;;2.90;;
30247;SDS011;17063;50.892;4.702;2023-02-26T00:14:02;7.78;;;3.22;;
30247;SDS011;17063;50.892;4.702;2023-02-26T00:16:33;9.07;;;3.25;;
30247;SDS011;17063;50.892;4.702;2023-02-26T00:19:11;18.17;;;3.53;;
30247;SDS011;17063;50.892;4.702;2023-02-26T00:21:38;13.65;;;3.60;;
30247;SDS011;17063;50.892;4.702;2023-02-26T00:24:05;11.05;;;3.25;;
30247;SDS011;17063;50.892;4.702;2023-02-26T00:26:36;11.80;;;3.70;;
30247;SDS011;17063;50.892;4.702;2023-02-26T00:29:08;9.70;;;3.40;;
30247;SDS011;17063;50.892;4.702;2023-02-26T00:31:36;6.85;;;2.83;;
30247;SDS011;17063;50.892;4.702;2023-02-26T00:34:09;11.40;;;3.60;;
30247;SDS011;17063;50.892;4.702;2023-02-26T00:42:02;14.85;;;3.72;;
30247;SDS011;17063;50.892;4.702;2023-02-26T00:44:29;16.67;;;3.10;;
30247;SDS011;17063;50.892;4.702;2023-02-26T00:46:59;11.13;;;3.08;;
30247;SDS011;17063;50.892;4.702;2023-02-26T00:55:14;9.40;;;4.00;;
30247;SDS011;17063;50.892;4.702;2023-02-26T00:57:40;18.00;;;4.35;;
30247;SDS011;17063;50.892;4.702;2023-02-26T01:00:10;7.85;;;3.25;;
30247;SDS011;17063;50.892;4.702;2023-02-26T01:02:39;9.32;;;3.60;;
30247;SDS011;17063;50.892;4.702;2023-02-26T01:05:06;18.30;;;4.45;;
30247;SDS011;17063;50.892;4.702;2023-02-26T01:07:42;13.77;;;4.15;;
30247;SDS011;17063;50.892;4.702;2023-02-26T01:10:20;11.77;;;4.43;;
30247;SDS011;17063;50.892;4.702;2023-02-26T01:12:49;12.52;;;4.25;;
30247;SDS011;17063;50.892;4.702;2023-02-26T01:15:16;10.52;;;4.32;;
30247;SDS011;17063;50.892;4.702;2023-02-26T01:20:25;11.52;;;4.28;;
30247;SDS011;17063;50.892;4.702;2023-02-26T01:22:59;14.77;;;4.00;;
30247;SDS011;17063;50.892;4.702;2023-02-26T01:25:48;11.95;;;3.88;;
30247;SDS011;17063;50.892;4.702;2023-02-26T01:28:25;15.70;;;4.57;;
30247;SDS011;17063;50.892;4.702;2023-02-26T01:30:54;12.00;;;4.25;;
30247;SDS011;17063;50.892;4.702;2023-02-26T01:33:35;16.42;;;4.80;;
30247;SDS011;17063;50.892;4.702;2023-02-26T01:36:09;11.32;;;4.68;;
30247;SDS011;17063;50.892;4.702;2023-02-26T01:50:17;8.38;;;3.35;;
30247;SDS011;17063;50.892;4.702;2023-02-26T01:55:23;15.52;;;3.97;;
30247;SDS011;17063;50.892;4.702;2023-02-26T01:57:52;11.77;;;4.37;;
30247;SDS011;17063;50.892;4.702;2023-02-26T02:00:25;11.07;;;4.00;;
30247;SDS011;17063;50.892;4.702;2023-02-26T02:02:59;8.88;;;3.13;;
30247;SDS011;17063;50.892;4.702;2023-02-26T02:05:35;9.50;;;3.03;;
30247;SDS011;17063;50.892;4.702;2023-02-26T02:08:09;12.77;;;3.58;;
30247;SDS011;17063;50.892;4.702;2023-02-26T02:10:42;10.77;;;3.22;;
30247;SDS011;17063;50.892;4.702;2023-02-26T02:13:34;17.27;;;3.92;;
30247;SDS011;17063;50.892;4.702;2023-02-26T02:16:22;10.02;;;3.15;;
30247;SDS011;17063;50.892;4.702;2023-02-26T02:27:35;16.88;;;3.22;;
30247;SDS011;17063;50.892;4.702;2023-02-26T02:30:32;6.13;;;3.03;;
30247;SDS011;17063;50.892;4.702;2023-02-26T02:33:04;12.05;;;3.13;;
30247;SDS011;17063;50.892;4.702;2023-02-26T02:35:42;15.10;;;3.10;;
30247;SDS011;17063;50.892;4.702;2023-02-26T02:38:19;11.95;;;3.53;;
30247;SDS011;17063;50.892;4.702;2023-02-26T02:40:54;9.45;;;2.85;;
30247;SDS011;17063;50.892;4.702;2023-02-26T02:43:26;8.30;;;3.30;;
30247;SDS011;17063;50.892;4.702;2023-02-26T02:46:00;7.70;;;2.92;;
30247;SDS011;17063;50.892;4.702;2023-02-26T02:48:32;12.13;;;3.40;;
30247;SDS011;17063;50.892;4.702;2023-02-26T02:51:09;8.73;;;2.95;;
30247;SDS011;17063;50.892;4.702;2023-02-26T02:53:39;13.80;;;3.30;;
30247;SDS011;17063;50.892;4.702;2023-02-26T02:58:51;10.50;;;3.13;;
30247;SDS011;17063;50.892;4.702;2023-02-26T03:01:23;8.07;;;2.80;;
30247;SDS011;17063;50.892;4.702;2023-02-26T03:06:48;6.78;;;2.65;;
30247;SDS011;17063;50.892;4.702;2023-02-26T03:09:17;10.85;;;3.00;;
30247;SDS011;17063;50.892;4.702;2023-02-26T03:11:44;8.32;;;2.78;;
30247;SDS011;17063;50.892;4.702;2023-02-26T03:14:13;11.60;;;3.38;;
30247;SDS011;17063;50.892;4.702;2023-02-26T03:30:40;7.07;;;2.28;;
30247;SDS011;17063;50.892;4.702;2023-02-26T03:38:29;8.93;;;2.63;;
30247;SDS011;17063;50.892;4.702;2023-02-26T03:41:05;8.10;;;3.22;;
30247;SDS011;17063;50.892;4.702;2023-02-26T03:43:37;10.27;;;2.70;;
30247;SDS011;17063;50.892;4.702;2023-02-26T03:46:08;5.32;;;2.40;;
30247;SDS011;17063;50.892;4.702;2023-02-26T03:48:38;12.55;;;2.70;;
30247;SDS011;17063;50.892;4.702;2023-02-26T03:51:06;10.02;;;2.63;;
30247;SDS011;17063;50.892;4.702;2023-02-26T03:53:50;12.20;;;2.88;;
30247;SDS011;17063;50.892;4.702;2023-02-26T03:56:24;7.03;;;2.42;;
30247;SDS011;17063;50.892;4.702;2023-02-26T03:59:17;10.40;;;2.42;;
30247;SDS011;17063;50.892;4.702;2023-02-26T04:01:46;7.13;;;2.42;;
30247;SDS011;17063;50.892;4.702;2023-02-26T04:04:22;8.32;;;2.30;;
30247;SDS011;17063;50.892;4.702;2023-02-26T04:06:52;12.07;;;3.67;;
30247;SDS011;17063;50.892;4.702;2023-02-26T04:09:19;8.18;;;2.63;;
30247;SDS011;17063;50.892;4.702;2023-02-26T04:11:47;9.63;;;2.38;;
30247;SDS011;17063;50.892;4.702;2023-02-26T04:14:15;8.98;;;2.40;;
30247;SDS011;17063;50.892;4.702;2023-02-26T04:16:42;7.10;;;2.35;;
30247;SDS011;17063;50.892;4.702;2023-02-26T04:19:10;9.52;;;2.60;;
30247;SDS011;17063;50.892;4.702;2023-02-26T04:21:37;12.73;;;2.47;;
30247;SDS011;17063;50.892;4.702;2023-02-26T04:24:04;6.07;;;2.40;;
30247;SDS011;17063;50.892;4.702;2023-02-26T04:26:33;8.48;;;2.33;;
30247;SDS011;17063;50.892;4.702;2023-02-26T04:29:00;7.20;;;1.90;;
30247;SDS011;17063;50.892;4.702;2023-02-26T04:31:28;6.40;;;2.08;;
30247;SDS011;17063;50.892;4.702;2023-02-26T04:33:55;8.38;;;2.13;;
30247;SDS011;17063;50.892;4.702;2023-02-26T04:36:22;5.22;;;2.17;;
30247;SDS011;17063;50.892;4.702;2023-02-26T04:38:50;10.15;;;2.30;;
30247;SDS011;17063;50.892;4.702;2023-02-26T04:41:17;8.45;;;2.22;;
30247;SDS011;17063;50.892;4.702;2023-02-26T04:43:46;10.23;;;2.15;;
30247;SDS011;17063;50.892;4.702;2023-02-26T04:46:25;3.83;;;1.95;;
30247;SDS011;17063;50.892;4.702;2023-02-26T04:48:53;11.10;;;2.20;;
30247;SDS011;17063;50.892;4.702;2023-02-26T04:51:20;10.32;;;2.25;;
30247;SDS011;17063;50.892;4.702;2023-02-26T04:53:49;7.07;;;1.95;;
30247;SDS011;17063;50.892;4.702;2023-02-26T04:56:16;7.35;;;1.92;;
30247;SDS011;17063;50.892;4.702;2023-02-26T04:58:44;8.75;;;1.98;;
30247;SDS011;17063;50.892;4.702;2023-02-26T05:01:16;10.13;;;1.90;;
30247;SDS011;17063;50.892;4.702;2023-02-26T05:03:43;6.40;;;1.80;;
30247;SDS011;17063;50.892;4.702;2023-02-26T05:06:10;2.45;;;1.63;;
30247;SDS011;17063;50.892;4.702;2023-02-26T05:08:37;8.60;;;2.10;;
30247;SDS011;17063;50.892;4.702;2023-02-26T05:11:08;8.63;;;1.80;;
30247;SDS011;17063;50.892;4.702;2023-02-26T05:13:36;8.60;;;1.85;;
30247;SDS011;17063;50.892;4.702;2023-02-26T05:16:03;8.35;;;1.85;;
30247;SDS011;17063;50.892;4.702;2023-02-26T05:18:31;6.70;;;2.00;;
30247;SDS011;17063;50.892;4.702;2023-02-26T05:20:57;7.90;;;1.80;;
30247;SDS011;17063;50.892;4.702;2023-02-26T05:23:25;7.57;;;2.00;;
30247;SDS011;17063;50.892;4.702;2023-02-26T05:25:56;5.03;;;1.60;;
30247;SDS011;17063;50.892;4.702;2023-02-26T05:28:24;9.13;;;1.80;;
30247;SDS011;17063;50.892;4.702;2023-02-26T05:30:52;4.32;;;1.65;;
30247;SDS011;17063;50.892;4.702;2023-02-26T05:33:19;10.10;;;1.58;;
30247;SDS011;17063;50.892;4.702;2023-02-26T05:35:46;4.72;;;1.50;;
30247;SDS011;17063;50.892;4.702;2023-02-26T05:38:14;5.35;;;1.80;;
30247;SDS011;17063;50.892;4.702;2023-02-26T05:40:41;6.35;;;2.63;;
30247;SDS011;17063;50.892;4.702;2023-02-26T05:43:08;5.60;;;1.30;;
30247;SDS011;17063;50.892;4.702;2023-02-26T05:45:36;4.72;;;1.65;;
30247;SDS011;17063;50.892;4.702;2023-02-26T05:48:03;8.82;;;1.67;;
30247;SDS011;17063;50.892;4.702;2023-02-26T05:50:30;5.40;;;1.35;;
30247;SDS011;17063;50.892;4.702;2023-02-26T05:52:57;5.85;;;1.70;;
30247;SDS011;17063;50.892;4.702;2023-02-26T05:55:24;2.90;;;1.25;;
30247;SDS011;17063;50.892;4.702;2023-02-26T05:57:51;4.95;;;1.38;;
30247;SDS011;17063;50.892;4.702;2023-02-26T06:00:18;2.63;;;1.20;;
30247;SDS011;17063;50.892;4.702;2023-02-26T06:02:46;4.95;;;1.40;;
30247;SDS011;17063;50.892;4.702;2023-02-26T06:05:13;7.05;;;1.50;;
30247;SDS011;17063;50.892;4.702;2023-02-26T06:07:40;9.25;;;1.63;;
30247;SDS011;17063;50.892;4.702;2023-02-26T06:10:07;3.95;;;1.50;;
30247;SDS011;17063;50.892;4.702;2023-02-26T06:12:35;3.47;;;1.48;;
30247;SDS011;17063;50.892;4.702;2023-02-26T06:15:03;5.90;;;1.35;;
30247;SDS011;17063;50.892;4.702;2023-02-26T06:17:30;4.25;;;1.33;;
30247;SDS011;17063;50.892;4.702;2023-02-26T06:19:58;3.67;;;1.30;;
30247;SDS011;17063;50.892;4.702;2023-02-26T06:22:25;3.65;;;1.27;;
30247;SDS011;17063;50.892;4.702;2023-02-26T06:24:52;2.65;;;1.58;;
30247;SDS011;17063;50.892;4.702;2023-02-26T06:27:21;6.18;;;1.58;;
30247;SDS011;17063;50.892;4.702;2023-02-26T06:29:48;3.67;;;1.23;;
30247;SDS011;17063;50.892;4.702;2023-02-26T06:32:15;9.00;;;1.80;;
30247;SDS011;17063;50.892;4.702;2023-02-26T06:34:42;5.72;;;1.45;;
30247;SDS011;17063;50.892;4.702;2023-02-26T06:37:09;5.28;;;1.30;;
30247;SDS011;17063;50.892;4.702;2023-02-26T06:39:36;5.90;;;1.33;;
30247;SDS011;17063;50.892;4.702;2023-02-26T06:42:03;5.60;;;1.27;;
30247;SDS011;17063;50.892;4.702;2023-02-26T06:44:31;5.45;;;1.27;;
30247;SDS011;17063;50.892;4.702;2023-02-26T06:46:58;4.82;;;1.20;;
30247;SDS011;17063;50.892;4.702;2023-02-26T06:49:24;3.33;;;1.30;;
30247;SDS011;17063;50.892;4.702;2023-02-26T06:51:51;9.02;;;1.40;;
30247;SDS011;17063;50.892;4.702;2023-02-26T06:54:18;4.85;;;1.17;;
30247;SDS011;17063;50.892;4.702;2023-02-26T06:56:46;9.63;;;1.50;;
30247;SDS011;17063;50.892;4.702;2023-02-26T06:59:13;4.32;;;1.10;;
30247;SDS011;17063;50.892;4.702;2023-02-26T07:01:40;5.15;;;1.50;;
30247;SDS011;17063;50.892;4.702;2023-02-26T07:04:08;9.60;;;1.52;;
30247;SDS011;17063;50.892;4.702;2023-02-26T07:06:46;4.10;;;1.40;;
30247;SDS011;17063;50.892;4.702;2023-02-26T07:09:13;3.92;;;1.17;;
30247;SDS011;17063;50.892;4.702;2023-02-26T07:11:40;2.10;;;1.35;;
30247;SDS011;17063;50.892;4.702;2023-02-26T07:14:07;6.75;;;1.13;;
30247;SDS011;17063;50.892;4.702;2023-02-26T07:16:36;3.53;;;1.30;;
30247;SDS011;17063;50.892;4.702;2023-02-26T07:19:03;2.72;;;1.17;;
30247;SDS011;17063;50.892;4.702;2023-02-26T07:21:30;5.05;;;1.40;;
30247;SDS011;17063;50.892;4.702;2023-02-26T07:23:56;2.10;;;1.30;;
30247;SDS011;17063;50.892;4.702;2023-02-26T07:26:26;5.40;;;1.40;;
30247;SDS011;17063;50.892;4.702;2023-02-26T07:28:53;4.00;;;1.05;;
30247;SDS011;17063;50.892;4.702;2023-02-26T07:31:20;4.50;;;1.73;;
30247;SDS011;17063;50.892;4.702;2023-02-26T07:33:47;4.35;;;1.15;;
30247;SDS011;17063;50.892;4.702;2023-02-26T07:36:14;2.38;;;1.40;;
30247;SDS011;17063;50.892;4.702;2023-02-26T07:38:41;4.03;;;1.40;;
30247;SDS011;17063;50.892;4.702;2023-02-26T07:41:08;2.40;;;1.23;;
30247;SDS011;17063;50.892;4.702;2023-02-26T07:43:35;6.13;;;1.50;;
30247;SDS011;17063;50.892;4.702;2023-02-26T07:46:02;4.57;;;1.15;;
30247;SDS011;17063;50.892;4.702;2023-02-26T07:48:30;3.17;;;1.10;;
30247;SDS011;17063;50.892;4.702;2023-02-26T07:50:57;6.95;;;1.23;;
30247;SDS011;17063;50.892;4.702;2023-02-26T07:53:23;8.60;;;1.55;;
30247;SDS011;17063;50.892;4.702;2023-02-26T07:55:50;3.55;;;1.33;;
30247;SDS011;17063;50.892;4.702;2023-02-26T07:58:17;4.15;;;1.27;;
30247;SDS011;17063;50.892;4.702;2023-02-26T08:00:44;1.80;;;0.80;;
30247;SDS011;17063;50.892;4.702;2023-02-26T08:03:11;6.28;;;1.33;;
30247;SDS011;17063;50.892;4.702;2023-02-26T08:05:38;3.67;;;0.90;;
30247;SDS011;17063;50.892;4.702;2023-02-26T08:08:05;4.45;;;1.17;;
30247;SDS011;17063;50.892;4.702;2023-02-26T08:10:31;4.53;;;1.40;;
30247;SDS011;17063;50.892;4.702;2023-02-26T08:12:58;2.23;;;1.00;;
30247;SDS011;17063;50.892;4.702;2023-02-26T08:15:25;1.57;;;0.90;;
30247;SDS011;17063;50.892;4.702;2023-02-26T08:17:52;1.90;;;0.93;;
30247;SDS011;17063;50.892;4.702;2023-02-26T08:20:19;9.87;;;1.17;;
30247;SDS011;17063;50.892;4.702;2023-02-26T08:22:46;8.57;;;1.20;;
30247;SDS011;17063;50.892;4.702;2023-02-26T08:25:13;6.43;;;1.10;;
30247;SDS011;17063;50.892;4.702;2023-02-26T08:27:40;4.60;;;1.07;;
30247;SDS011;17063;50.892;4.702;2023-02-26T08:30:08;3.60;;;1.40;;
30247;SDS011;17063;50.892;4.702;2023-02-26T08:32:35;5.53;;;1.30;;
30247;SDS011;17063;50.892;4.702;2023-02-26T08:35:02;4.30;;;1.27;;
30247;SDS011;17063;50.892;4.702;2023-02-26T08:37:29;6.17;;;1.27;;
30247;SDS011;17063;50.892;4.702;2023-02-26T08:39:56;6.83;;;1.10;;
30247;SDS011;17063;50.892;4.702;2023-02-26T08:42:25;1.07;;;0.90;;
30247;SDS011;17063;50.892;4.702;2023-02-26T08:44:52;4.57;;;1.07;;
30247;SDS011;17063;50.892;4.702;2023-02-26T08:47:19;8.07;;;1.43;;
30247;SDS011;17063;50.892;4.702;2023-02-26T08:49:54;2.20;;;1.00;;
30247;SDS011;17063;50.892;4.702;2023-02-26T08:52:21;2.97;;;0.97;;
30247;SDS011;17063;50.892;4.702;2023-02-26T08:54:48;2.57;;;1.00;;
30247;SDS011;17063;50.892;4.702;2023-02-26T08:57:19;2.50;;;1.03;;
30247;SDS011;17063;50.892;4.702;2023-02-26T08:59:46;6.90;;;1.10;;
30247;SDS011;17063;50.892;4.702;2023-02-26T09:02:13;4.60;;;0.90;;
30247;SDS011;17063;50.892;4.702;2023-02-26T09:04:40;3.97;;;1.33;;
30247;SDS011;17063;50.892;4.702;2023-02-26T09:07:10;6.37;;;1.00;;
30247;SDS011;17063;50.892;4.702;2023-02-26T09:09:37;3.80;;;1.00;;
30247;SDS011;17063;50.892;4.702;2023-02-26T09:12:04;2.17;;;0.90;;
30247;SDS011;17063;50.892;4.702;2023-02-26T09:14:31;5.10;;;1.15;;
30247;SDS011;17063;50.892;4.702;2023-02-26T09:16:58;2.10;;;1.10;;
30247;SDS011;17063;50.892;4.702;2023-02-26T09:19:25;2.15;;;0.80;;
30247;SDS011;17063;50.892;4.702;2023-02-26T09:21:52;3.13;;;0.90;;
30247;SDS011;17063;50.892;4.702;2023-02-26T09:24:19;3.20;;;1.00;;
30247;SDS011;17063;50.892;4.702;2023-02-26T09:26:46;5.20;;;1.10;;
30247;SDS011;17063;50.892;4.702;2023-02-26T09:29:13;3.17;;;1.00;;
30247;SDS011;17063;50.892;4.702;2023-02-26T09:31:40;1.63;;;0.60;;
30247;SDS011;17063;50.892;4.702;2023-02-26T09:34:07;7.30;;;1.70;;
30247;SDS011;17063;50.892;4.702;2023-02-26T09:36:36;5.20;;;1.25;;
30247;SDS011;17063;50.892;4.702;2023-02-26T09:39:04;3.53;;;0.77;;
30247;SDS011;17063;50.892;4.702;2023-02-26T09:41:33;7.82;;;1.15;;
30247;SDS011;17063;50.892;4.702;2023-02-26T09:44:20;4.72;;;1.15;;
30247;SDS011;17063;50.892;4.702;2023-02-26T09:49:32;5.05;;;0.80;;
30247;SDS011;17063;50.892;4.702;2023-02-26T09:52:26;6.22;;;1.02;;
30247;SDS011;17063;50.892;4.702;2023-02-26T09:55:55;2.28;;;0.50;;
30247;SDS011;17063;50.892;4.702;2023-02-26T09:57:51;1.83;;;0.73;;
30247;SDS011;17063;50.892;4.702;2023-02-26T10:11:28;4.55;;;0.93;;
30247;SDS011;17063;50.892;4.702;2023-02-26T10:14:11;3.72;;;1.25;;
30247;SDS011;17063;50.892;4.702;2023-02-26T10:16:42;1.65;;;1.20;;
30247;SDS011;17063;50.892;4.702;2023-02-26T10:19:15;0.98;;;0.75;;
30247;SDS011;17063;50.892;4.702;2023-02-26T10:24:22;1.90;;;0.80;;
30247;SDS011;17063;50.892;4.702;2023-02-26T10:27:11;4.10;;;0.93;;
30247;SDS011;17063;50.892;4.702;2023-02-26T10:29:44;2.42;;;0.80;;
30247;SDS011;17063;50.892;4.702;2023-02-26T10:32:32;1.55;;;0.70;;
30247;SDS011;17063;50.892;4.702;2023-02-26T10:35:04;1.92;;;0.50;;
30247;SDS011;17063;50.892;4.702;2023-02-26T10:45:59;1.13;;;0.73;;
30247;SDS011;17063;50.892;4.702;2023-02-26T10:51:40;1.33;;;0.60;;
30247;SDS011;17063;50.892;4.702;2023-02-26T10:56:53;2.05;;;0.60;;
30247;SDS011;17063;50.892;4.702;2023-02-26T10:59:20;4.65;;;1.42;;
30247;SDS011;17063;50.892;4.702;2023-02-26T11:01:47;1.25;;;0.60;;
30247;SDS011;17063;50.892;4.702;2023-02-26T11:04:20;1.40;;;0.63;;
30247;SDS011;17063;50.892;4.702;2023-02-26T11:07:10;3.25;;;0.60;;
30247;SDS011;17063;50.892;4.702;2023-02-26T11:09:37;0.63;;;0.43;;
30247;SDS011;17063;50.892;4.702;2023-02-26T11:14:36;4.47;;;1.65;;
30247;SDS011;17063;50.892;4.702;2023-02-26T11:19:50;1.65;;;0.70;;
30247;SDS011;17063;50.892;4.702;2023-02-26T11:22:19;1.02;;;0.80;;
30247;SDS011;17063;50.892;4.702;2023-02-26T11:24:50;0.50;;;0.50;;
30247;SDS011;17063;50.892;4.702;2023-02-26T11:27:21;0.75;;;0.70;;
30247;SDS011;17063;50.892;4.702;2023-02-26T11:29:58;3.78;;;1.00;;
30247;SDS011;17063;50.892;4.702;2023-02-26T11:32:32;2.80;;;1.15;;
30247;SDS011;17063;50.892;4.702;2023-02-26T11:35:00;3.45;;;1.63;;
30247;SDS011;17063;50.892;4.702;2023-02-26T11:37:30;3.00;;;1.30;;
30247;SDS011;17063;50.892;4.702;2023-02-26T11:40:15;3.65;;;0.95;;
30247;SDS011;17063;50.892;4.702;2023-02-26T11:42:50;1.10;;;0.50;;
30247;SDS011;17063;50.892;4.702;2023-02-26T11:45:22;8.63;;;0.80;;
30247;SDS011;17063;50.892;4.702;2023-02-26T11:47:57;2.25;;;0.63;;
30247;SDS011;17063;50.892;4.702;2023-02-26T11:50:28;0.88;;;0.52;;
30247;SDS011;17063;50.892;4.702;2023-02-26T11:53:06;4.00;;;0.70;;
30247;SDS011;17063;50.892;4.702;2023-02-26T11:55:37;1.08;;;0.70;;
30247;SDS011;17063;50.892;4.702;2023-02-26T11:58:16;1.83;;;0.65;;
30247;SDS011;17063;50.892;4.702;2023-02-26T12:00:51;0.65;;;0.57;;
30247;SDS011;17063;50.892;4.702;2023-02-26T12:03:26;3.85;;;0.77;;
30247;SDS011;17063;50.892;4.702;2023-02-26T12:05:54;2.83;;;0.80;;
30247;SDS011;17063;50.892;4.702;2023-02-26T12:08:30;2.33;;;1.00;;
30247;SDS011;17063;50.892;4.702;2023-02-26T12:25:28;3.40;;;1.40;;
30247;SDS011;17063;50.892;4.702;2023-02-26T12:28:22;1.60;;;0.52;;
30247;SDS011;17063;50.892;4.702;2023-02-26T12:31:04;1.23;;;0.70;;
30247;SDS011;17063;50.892;4.702;2023-02-26T12:45:03;2.00;;;0.70;;
30247;SDS011;17063;50.892;4.702;2023-02-26T12:50:50;2.43;;;1.00;;
30247;SDS011;17063;50.892;4.702;2023-02-26T12:56:03;2.22;;;1.00;;
30247;SDS011;17063;50.892;4.702;2023-02-26T13:01:50;4.07;;;0.75;;
30247;SDS011;17063;50.892;4.702;2023-02-26T13:09:56;1.52;;;1.00;;
30247;SDS011;17063;50.892;4.702;2023-02-26T13:12:33;2.75;;;0.95;;
30247;SDS011;17063;50.892;4.702;2023-02-26T13:20:17;1.13;;;0.70;;
30247;SDS011;17063;50.892;4.702;2023-02-26T13:22:48;2.23;;;0.60;;
30247;SDS011;17063;50.892;4.702;2023-02-26T13:25:21;1.27;;;0.73;;
30247;SDS011;17063;50.892;4.702;2023-02-26T13:27:54;2.83;;;0.50;;
30247;SDS011;17063;50.892;4.702;2023-02-26T13:30:24;0.73;;;0.60;;
30247;SDS011;17063;50.892;4.702;2023-02-26T13:33:00;4.43;;;1.00;;
30247;SDS011;17063;50.892;4.702;2023-02-26T13:35:46;2.10;;;0.80;;
30247;SDS011;17063;50.892;4.702;2023-02-26T13:38:25;2.03;;;0.83;;
30247;SDS011;17063;50.892;4.702;2023-02-26T13:46:41;5.93;;;1.23;;
30247;SDS011;17063;50.892;4.702;2023-02-26T13:52:00;3.13;;;0.80;;
30247;SDS011;17063;50.892;4.702;2023-02-26T13:54:28;1.63;;;0.93;;
30247;SDS011;17063;50.892;4.702;2023-02-26T13:59:58;3.53;;;0.80;;
30247;SDS011;17063;50.892;4.702;2023-02-26T14:02:33;0.77;;;0.50;;
30247;SDS011;17063;50.892;4.702;2023-02-26T14:05:06;2.47;;;0.83;;
30247;SDS011;17063;50.892;4.702;2023-02-26T14:07:53;2.23;;;0.60;;
30247;SDS011;17063;50.892;4.702;2023-02-26T14:10:35;1.23;;;0.77;;
30247;SDS011;17063;50.892;4.702;2023-02-26T14:16:21;1.20;;;0.83;;
30247;SDS011;17063;50.892;4.702;2023-02-26T14:18:50;1.20;;;0.73;;
30247;SDS011;17063;50.892;4.702;2023-02-26T14:26:46;0.50;;;0.50;;
30247;SDS011;17063;50.892;4.702;2023-02-26T14:34:33;0.50;;;0.50;;
30247;SDS011;17063;50.892;4.702;2023-02-26T14:37:03;3.13;;;0.80;;
30247;SDS011;17063;50.892;4.702;2023-02-26T14:39:35;0.83;;;0.60;;
30247;SDS011;17063;50.892;4.702;2023-02-26T14:42:21;1.03;;;0.70;;
30247;SDS011;17063;50.892;4.702;2023-02-26T14:44:51;1.83;;;0.70;;
30247;SDS011;17063;50.892;4.702;2023-02-26T14:47:23;4.23;;;0.77;;
30247;SDS011;17063;50.892;4.702;2023-02-26T14:49:53;2.40;;;0.70;;
30247;SDS011;17063;50.892;4.702;2023-02-26T14:57:52;1.80;;;0.53;;
30247;SDS011;17063;50.892;4.702;2023-02-26T15:03:14;1.93;;;0.80;;
30247;SDS011;17063;50.892;4.702;2023-02-26T15:10:03;0.70;;;0.70;;
30247;SDS011;17063;50.892;4.702;2023-02-26T15:25:43;2.60;;;0.80;;
30247;SDS011;17063;50.892;4.702;2023-02-26T15:28:13;2.10;;;0.67;;
30247;SDS011;17063;50.892;4.702;2023-02-26T15:31:03;1.80;;;0.70;;
30247;SDS011;17063;50.892;4.702;2023-02-26T15:33:32;1.93;;;0.70;;
30247;SDS011;17063;50.892;4.702;2023-02-26T15:36:00;1.70;;;0.70;;
30247;SDS011;17063;50.892;4.702;2023-02-26T15:38:39;0.77;;;0.50;;
30247;SDS011;17063;50.892;4.702;2023-02-26T15:41:14;1.80;;;0.40;;
30247;SDS011;17063;50.892;4.702;2023-02-26T15:43:45;0.60;;;0.60;;
30247;SDS011;17063;50.892;4.702;2023-02-26T15:46:14;1.23;;;0.63;;
30247;SDS011;17063;50.892;4.702;2023-02-26T15:48:41;3.23;;;0.70;;
30247;SDS011;17063;50.892;4.702;2023-02-26T15:51:11;4.77;;;0.90;;
30247;SDS011;17063;50.892;4.702;2023-02-26T15:53:42;1.00;;;0.90;;
30247;SDS011;17063;50.892;4.702;2023-02-26T15:56:12;2.70;;;0.83;;
30247;SDS011;17063;50.892;4.702;2023-02-26T15:58:46;2.60;;;0.80;;
30247;SDS011;17063;50.892;4.702;2023-02-26T16:01:17;1.43;;;0.73;;
30247;SDS011;17063;50.892;4.702;2023-02-26T16:03:45;1.30;;;0.93;;
30247;SDS011;17063;50.892;4.702;2023-02-26T16:06:17;2.40;;;0.77;;
30247;SDS011;17063;50.892;4.702;2023-02-26T16:08:46;2.53;;;0.90;;
30247;SDS011;17063;50.892;4.702;2023-02-26T16:11:13;2.77;;;0.70;;
30247;SDS011;17063;50.892;4.702;2023-02-26T16:13:41;2.80;;;0.70;;
30247;SDS011;17063;50.892;4.702;2023-02-26T16:16:17;0.93;;;0.83;;
30247;SDS011;17063;50.892;4.702;2023-02-26T16:19:05;1.87;;;0.80;;
30247;SDS011;17063;50.892;4.702;2023-02-26T16:21:35;2.30;;;1.00;;
30247;SDS011;17063;50.892;4.702;2023-02-26T16:24:04;5.77;;;2.50;;
30247;SDS011;17063;50.892;4.702;2023-02-26T16:26:34;6.70;;;3.47;;
30247;SDS011;17063;50.892;4.702;2023-02-26T16:29:10;5.93;;;1.77;;
30247;SDS011;17063;50.892;4.702;2023-02-26T16:31:39;1.70;;;0.97;;
30247;SDS011;17063;50.892;4.702;2023-02-26T16:34:21;0.80;;;0.80;;
30247;SDS011;17063;50.892;4.702;2023-02-26T16:39:44;5.17;;;1.43;;
30247;SDS011;17063;50.892;4.702;2023-02-26T16:42:15;1.60;;;0.80;;
30247;SDS011;17063;50.892;4.702;2023-02-26T16:44:47;1.90;;;0.70;;
30247;SDS011;17063;50.892;4.702;2023-02-26T16:47:14;5.10;;;0.77;;
30247;SDS011;17063;50.892;4.702;2023-02-26T16:49:41;2.67;;;0.70;;
30247;SDS011;17063;50.892;4.702;2023-02-26T16:52:17;1.33;;;0.90;;
30247;SDS011;17063;50.892;4.702;2023-02-26T16:54:56;2.23;;;0.80;;
30247;SDS011;17063;50.892;4.702;2023-02-26T16:57:31;2.10;;;1.00;;
30247;SDS011;17063;50.892;4.702;2023-02-26T17:00:02;2.30;;;1.00;;
30247;SDS011;17063;50.892;4.702;2023-02-26T17:02:35;1.33;;;0.80;;
30247;SDS011;17063;50.892;4.702;2023-02-26T17:05:09;0.93;;;0.87;;
30247;SDS011;17063;50.892;4.702;2023-02-26T17:08:34;2.40;;;1.00;;
30247;SDS011;17063;50.892;4.702;2023-02-26T17:10:49;1.93;;;1.03;;
30247;SDS011;17063;50.892;4.702;2023-02-26T17:13:25;1.87;;;1.20;;
30247;SDS011;17063;50.892;4.702;2023-02-26T17:15:56;1.37;;;0.80;;
30247;SDS011;17063;50.892;4.702;2023-02-26T17:18:24;2.50;;;1.47;;
30247;SDS011;17063;50.892;4.702;2023-02-26T17:20:51;1.40;;;0.87;;
30247;SDS011;17063;50.892;4.702;2023-02-26T17:23:18;2.07;;;0.90;;
30247;SDS011;17063;50.892;4.702;2023-02-26T17:25:48;3.03;;;1.40;;
30247;SDS011;17063;50.892;4.702;2023-02-26T17:28:21;3.60;;;1.73;;
30247;SDS011;17063;50.892;4.702;2023-02-26T17:30:49;3.00;;;1.10;;
30247;SDS011;17063;50.892;4.702;2023-02-26T17:33:17;5.53;;;3.07;;
30247;SDS011;17063;50.892;4.702;2023-02-26T17:35:45;1.20;;;1.10;;
30247;SDS011;17063;50.892;4.702;2023-02-26T17:38:12;2.60;;;0.90;;
30247;SDS011;17063;50.892;4.702;2023-02-26T17:40:40;2.00;;;1.40;;
30247;SDS011;17063;50.892;4.702;2023-02-26T17:43:08;6.47;;;1.53;;
30247;SDS011;17063;50.892;4.702;2023-02-26T17:45:36;1.27;;;0.97;;
30247;SDS011;17063;50.892;4.702;2023-02-26T17:48:04;1.80;;;1.23;;
30247;SDS011;17063;50.892;4.702;2023-02-26T17:50:43;3.77;;;1.50;;
30247;SDS011;17063;50.892;4.702;2023-02-26T17:53:13;6.10;;;1.83;;
30247;SDS011;17063;50.892;4.702;2023-02-26T17:55:40;2.57;;;1.70;;
30247;SDS011;17063;50.892;4.702;2023-02-26T17:58:14;2.67;;;1.10;;
30247;SDS011;17063;50.892;4.702;2023-02-26T18:00:44;3.73;;;1.30;;
30247;SDS011;17063;50.892;4.702;2023-02-26T18:03:15;2.60;;;1.40;;
30247;SDS011;17063;50.892;4.702;2023-02-26T18:05:42;3.90;;;1.47;;
30247;SDS011;17063;50.892;4.702;2023-02-26T18:08:20;3.87;;;1.33;;
30247;SDS011;17063;50.892;4.702;2023-02-26T18:10:49;1.57;;;1.17;;
30247;SDS011;17063;50.892;4.702;2023-02-26T18:13:17;3.57;;;1.50;;
30247;SDS011;17063;50.892;4.702;2023-02-26T18:15:44;1.63;;;1.17;;
30247;SDS011;17063;50.892;4.702;2023-02-26T18:18:11;5.63;;;1.50;;
30247;SDS011;17063;50.892;4.702;2023-02-26T18:20:39;2.53;;;1.58;;
30247;SDS011;17063;50.892;4.702;2023-02-26T18:23:10;2.33;;;1.30;;
30247;SDS011;17063;50.892;4.702;2023-02-26T18:25:45;4.53;;;1.30;;